sensor_id;sensor_type;location;lat;lon;timestamp;pressure;altitude;pressure_sealevel;temperature;humidity
51313;BME280;37397;53.226;10.400;2023-03-24T00:00:15;99752.78;;;12.17;71.65
51313;BME280;37397;53.226;10.400;2023-03-24T00:02:43;99749.66;;;12.15;71.62
51313;BME280;37397;53.226;10.400;2023-03-24T00:05:14;99749.16;;;12.16;71.59
51313;BME280;37397;53.226;10.400;2023-03-24T00:07:41;99738.75;;;12.13;71.73
51313;BME280;37397;53.226;10.400;2023-03-24T00:10:12;99746.28;;;12.16;71.56
51313;BME280;37397;53.226;10.400;2023-03-24T00:12:40;99742.66;;;12.16;71.73
51313;BME280;37397;53.226;10.400;2023-03-24T00:15:17;99737.97;;;12.13;71.81
51313;BME280;37397;53.226;10.400;2023-03-24T00:17:45;99734.59;;;12.14;71.71
51313;BME280;37397;53.226;10.400;2023-03-24T00:20:17;99739.81;;;12.16;71.53
51313;BME280;37397;53.226;10.400;2023-03-24T00:22:47;99729.41;;;12.13;71.63
51313;BME280;37397;53.226;10.400;2023-03-24T00:25:16;99729.66;;;12.15;71.84
51313;BME280;37397;53.226;10.400;2023-03-24T00:27:43;99717.97;;;12.13;71.54
51313;BME280;37397;53.226;10.400;2023-03-24T00:30:11;99717.44;;;12.14;71.72
51313;BME280;37397;53.226;10.400;2023-03-24T00:32:38;99708.34;;;12.16;71.85
51313;BME280;37397;53.226;10.400;2023-03-24T00:35:06;99701.06;;;12.15;71.89
51313;BME280;37397;53.226;10.400;2023-03-24T00:37:35;99699.47;;;12.14;71.59
51313;BME280;37397;53.226;10.400;2023-03-24T00:40:04;99706.78;;;12.15;71.89
51313;BME280;37397;53.226;10.400;2023-03-24T00:42:34;99695.34;;;12.15;71.89
51313;BME280;37397;53.226;10.400;2023-03-24T00:45:03;99691.44;;;12.12;72.03
51313;BME280;37397;53.226;10.400;2023-03-24T00:47:31;99684.69;;;12.10;71.86
51313;BME280;37397;53.226;10.400;2023-03-24T00:50:12;99683.41;;;12.11;71.63
51313;BME280;37397;53.226;10.400;2023-03-24T00:52:39;99687.28;;;12.13;71.87
51313;BME280;37397;53.226;10.400;2023-03-24T00:55:10;99678.69;;;12.13;71.63
51313;BME280;37397;53.226;10.400;2023-03-24T00:57:43;99685.72;;;12.12;71.85
51313;BME280;37397;53.226;10.400;2023-03-24T01:00:22;99680.00;;;12.12;71.85
51313;BME280;37397;53.226;10.400;2023-03-24T01:02:53;99672.22;;;12.13;71.94
51313;BME280;37397;53.226;10.400;2023-03-24T01:05:22;99666.50;;;12.13;71.87
51313;BME280;37397;53.226;10.400;2023-03-24T01:07:49;99663.63;;;12.13;72.11
51313;BME280;37397;53.226;10.400;2023-03-24T01:10:22;99660.78;;;12.13;72.12
51313;BME280;37397;53.226;10.400;2023-03-24T01:12:54;99653.22;;;12.10;71.76
51313;BME280;37397;53.226;10.400;2023-03-24T01:15:23;99642.06;;;12.06;72.17
51313;BME280;37397;53.226;10.400;2023-03-24T01:17:50;99645.66;;;12.12;71.91
51313;BME280;37397;53.226;10.400;2023-03-24T01:20:19;99646.47;;;12.13;71.91
51313;BME280;37397;53.226;10.400;2023-03-24T01:22:49;99631.94;;;12.11;72.17
51313;BME280;37397;53.226;10.400;2023-03-24T01:25:21;99627.75;;;12.12;71.95
51313;BME280;37397;53.226;10.400;2023-03-24T01:27:49;99622.03;;;12.12;72.13
51313;BME280;37397;53.226;10.400;2023-03-24T01:30:20;99622.03;;;12.12;72.17
51313;BME280;37397;53.226;10.400;2023-03-24T01:32:47;99618.16;;;12.09;72.25
51313;BME280;37397;53.226;10.400;2023-03-24T01:35:14;99610.59;;;12.12;72.20
51313;BME280;37397;53.226;10.400;2023-03-24T01:37:41;99606.19;;;12.11;72.29
51313;BME280;37397;53.226;10.400;2023-03-24T01:40:11;99609.81;;;12.11;72.30
51313;BME280;37397;53.226;10.400;2023-03-24T01:42:41;99600.19;;;12.09;72.40
51313;BME280;37397;53.226;10.400;2023-03-24T01:48:02;99588.50;;;12.07;72.65
51313;BME280;37397;53.226;10.400;2023-03-24T01:50:30;99583.03;;;12.09;72.27
51313;BME280;37397;53.226;10.400;2023-03-24T01:52:57;99568.50;;;12.07;72.36
51313;BME280;37397;53.226;10.400;2023-03-24T01:55:25;99563.28;;;12.11;72.51
51313;BME280;37397;53.226;10.400;2023-03-24T01:57:55;99558.88;;;12.10;72.37
51313;BME280;37397;53.226;10.400;2023-03-24T02:00:28;99552.09;;;12.07;72.47
51313;BME280;37397;53.226;10.400;2023-03-24T02:03:17;99550.28;;;12.10;72.59
51313;BME280;37397;53.226;10.400;2023-03-24T02:05:52;99544.56;;;12.10;72.49
51313;BME280;37397;53.226;10.400;2023-03-24T02:08:45;99541.47;;;12.08;72.41
51313;BME280;37397;53.226;10.400;2023-03-24T02:11:13;99534.94;;;12.07;72.46
51313;BME280;37397;53.226;10.400;2023-03-24T02:13:50;99533.13;;;12.10;72.56
51313;BME280;37397;53.226;10.400;2023-03-24T02:19:49;99521.19;;;12.06;72.55
51313;BME280;37397;53.226;10.400;2023-03-24T02:28:19;99512.59;;;12.06;72.61
51313;BME280;37397;53.226;10.400;2023-03-24T02:39:47;99480.66;;;12.01;72.78
51313;BME280;37397;53.226;10.400;2023-03-24T02:42:52;99477.28;;;12.03;72.92
51313;BME280;37397;53.226;10.400;2023-03-24T02:45:38;99465.84;;;12.03;72.95
51313;BME280;37397;53.226;10.400;2023-03-24T02:51:11;99457.25;;;12.03;73.01
51313;BME280;37397;53.226;10.400;2023-03-24T02:56:54;99441.41;;;12.02;73.09
51313;BME280;37397;53.226;10.400;2023-03-24T02:59:44;99447.88;;;12.02;73.15
51313;BME280;37397;53.226;10.400;2023-03-24T03:02:43;99443.72;;;12.03;73.15
51313;BME280;37397;53.226;10.400;2023-03-24T03:05:25;99436.44;;;12.02;73.11
51313;BME280;37397;53.226;10.400;2023-03-24T03:07:57;99441.66;;;12.04;73.09
51313;BME280;37397;53.226;10.400;2023-03-24T03:10:31;99419.56;;;12.04;73.09
51313;BME280;37397;53.226;10.400;2023-03-24T03:13:01;99435.41;;;12.06;73.23
51313;BME280;37397;53.226;10.400;2023-03-24T03:15:36;99421.09;;;12.06;73.30
51313;BME280;37397;53.226;10.400;2023-03-24T03:18:15;99411.00;;;12.04;73.42
51313;BME280;37397;53.226;10.400;2023-03-24T03:20:50;99401.09;;;12.06;72.93
51313;BME280;37397;53.226;10.400;2023-03-24T03:23:24;99391.22;;;12.07;73.15
51313;BME280;37397;53.226;10.400;2023-03-24T03:25:57;99388.13;;;12.04;73.10
51313;BME280;37397;53.226;10.400;2023-03-24T03:28:32;99385.50;;;12.07;73.39
51313;BME280;37397;53.226;10.400;2023-03-24T03:31:05;99385.25;;;12.04;73.36
51313;BME280;37397;53.226;10.400;2023-03-24T03:33:37;99372.50;;;12.06;73.09
51313;BME280;37397;53.226;10.400;2023-03-24T03:36:27;99368.09;;;12.04;73.07
51313;BME280;37397;53.226;10.400;2023-03-24T03:39:13;99371.22;;;12.07;73.17
51313;BME280;37397;53.226;10.400;2023-03-24T03:41:42;99379.78;;;12.07;73.19
51313;BME280;37397;53.226;10.400;2023-03-24T03:44:09;99351.75;;;11.99;73.31
51313;BME280;37397;53.226;10.400;2023-03-24T03:46:36;99345.47;;;12.07;73.36
51313;BME280;37397;53.226;10.400;2023-03-24T03:49:07;99338.19;;;12.06;73.35
51313;BME280;37397;53.226;10.400;2023-03-24T03:51:34;99342.84;;;12.09;73.38
51313;BME280;37397;53.226;10.400;2023-03-24T03:54:06;99345.19;;;12.10;73.42
51313;BME280;37397;53.226;10.400;2023-03-24T03:56:35;99334.03;;;12.07;73.26
51313;BME280;37397;53.226;10.400;2023-03-24T03:59:32;99318.44;;;12.08;73.19
51313;BME280;37397;53.226;10.400;2023-03-24T04:04:40;99317.38;;;12.11;73.48
51313;BME280;37397;53.226;10.400;2023-03-24T04:08:38;99312.72;;;12.08;73.47
51313;BME280;37397;53.226;10.400;2023-03-24T04:11:13;99321.31;;;12.08;73.48
51313;BME280;37397;53.226;10.400;2023-03-24T04:17:25;99325.69;;;12.09;73.38
51313;BME280;37397;53.226;10.400;2023-03-24T04:26:26;99307.00;;;12.08;73.52
51313;BME280;37397;53.226;10.400;2023-03-24T04:29:09;99306.22;;;12.07;73.58
51313;BME280;37397;53.226;10.400;2023-03-24T04:31:50;99282.03;;;12.08;73.61
51313;BME280;37397;53.226;10.400;2023-03-24T04:34:34;99282.56;;;12.07;73.79
51313;BME280;37397;53.226;10.400;2023-03-24T04:37:24;99288.78;;;12.11;73.75
51313;BME280;37397;53.226;10.400;2023-03-24T04:40:08;99277.38;;;12.11;73.76
51313;BME280;37397;53.226;10.400;2023-03-24T04:42:41;99288.25;;;12.12;73.81
51313;BME280;37397;53.226;10.400;2023-03-24T04:45:11;99274.22;;;12.09;73.87
51313;BME280;37397;53.226;10.400;2023-03-24T04:47:57;99280.75;;;12.09;73.57
51313;BME280;37397;53.226;10.400;2023-03-24T04:50:41;99267.47;;;12.12;73.91
51313;BME280;37397;53.226;10.400;2023-03-24T04:53:16;99263.59;;;12.09;73.92
51313;BME280;37397;53.226;10.400;2023-03-24T04:58:24;99250.06;;;12.10;74.05
51313;BME280;37397;53.226;10.400;2023-03-24T05:00:51;99250.31;;;12.12;73.92
51313;BME280;37397;53.226;10.400;2023-03-24T05:03:18;99263.31;;;12.13;74.12
51313;BME280;37397;53.226;10.400;2023-03-24T05:05:47;99259.63;;;12.18;74.10
51313;BME280;37397;53.226;10.400;2023-03-24T05:08:15;99250.53;;;12.14;74.02
51313;BME280;37397;53.226;10.400;2023-03-24T05:10:42;99238.31;;;12.19;74.12
51313;BME280;37397;53.226;10.400;2023-03-24T05:13:10;99236.97;;;12.20;74.20
51313;BME280;37397;53.226;10.400;2023-03-24T05:15:52;99241.41;;;12.21;73.96
51313;BME280;37397;53.226;10.400;2023-03-24T05:18:40;99231.25;;;12.20;74.28
51313;BME280;37397;53.226;10.400;2023-03-24T05:21:06;99231.53;;;12.22;74.31
51313;BME280;37397;53.226;10.400;2023-03-24T05:23:34;99213.84;;;12.24;74.25
51313;BME280;37397;53.226;10.400;2023-03-24T05:26:01;99208.66;;;12.22;74.37
51313;BME280;37397;53.226;10.400;2023-03-24T05:28:31;99229.66;;;12.25;74.45
51313;BME280;37397;53.226;10.400;2023-03-24T05:30:58;99234.84;;;12.26;74.46
51313;BME280;37397;53.226;10.400;2023-03-24T05:33:52;99230.44;;;12.25;74.24
51313;BME280;37397;53.226;10.400;2023-03-24T05:36:20;99221.09;;;12.25;74.49
51313;BME280;37397;53.226;10.400;2023-03-24T05:38:53;99221.31;;;12.27;74.43
51313;BME280;37397;53.226;10.400;2023-03-24T05:41:23;99212.22;;;12.28;74.84
51313;BME280;37397;53.226;10.400;2023-03-24T05:43:49;99233.25;;;12.31;75.03
51313;BME280;37397;53.226;10.400;2023-03-24T05:46:16;99206.50;;;12.28;75.01
51313;BME280;37397;53.226;10.400;2023-03-24T05:48:45;99213.78;;;12.29;75.07
51313;BME280;37397;53.226;10.400;2023-03-24T05:51:14;99205.19;;;12.29;74.84
51313;BME280;37397;53.226;10.400;2023-03-24T05:53:42;99207.81;;;12.27;75.29
51313;BME280;37397;53.226;10.400;2023-03-24T05:56:14;99196.84;;;12.31;75.13
51313;BME280;37397;53.226;10.400;2023-03-24T05:59:02;99205.91;;;12.35;75.17
51313;BME280;37397;53.226;10.400;2023-03-24T06:01:56;99211.94;;;12.32;75.02
51313;BME280;37397;53.226;10.400;2023-03-24T06:04:56;99219.69;;;12.37;74.96
51313;BME280;37397;53.226;10.400;2023-03-24T06:07:24;99206.91;;;12.38;75.18
51313;BME280;37397;53.226;10.400;2023-03-24T06:09:54;99197.56;;;12.37;74.84
51313;BME280;37397;53.226;10.400;2023-03-24T06:12:23;99194.19;;;12.39;75.04
51313;BME280;37397;53.226;10.400;2023-03-24T06:14:57;99202.22;;;12.40;75.47
51313;BME280;37397;53.226;10.400;2023-03-24T06:17:27;99189.72;;;12.44;75.10
51313;BME280;37397;53.226;10.400;2023-03-24T06:19:58;99184.00;;;12.44;75.51
51313;BME280;37397;53.226;10.400;2023-03-24T06:22:33;99187.09;;;12.46;75.59
51313;BME280;37397;53.226;10.400;2023-03-24T06:25:01;99180.59;;;12.45;75.67
51313;BME280;37397;53.226;10.400;2023-03-24T06:27:30;99191.50;;;12.47;75.79
51313;BME280;37397;53.226;10.400;2023-03-24T06:29:59;99196.69;;;12.48;75.57
51313;BME280;37397;53.226;10.400;2023-03-24T06:32:26;99191.75;;;12.49;75.47
51313;BME280;37397;53.226;10.400;2023-03-24T06:34:53;99191.97;;;12.51;75.69
51313;BME280;37397;53.226;10.400;2023-03-24T06:37:36;99196.16;;;12.50;75.71
51313;BME280;37397;53.226;10.400;2023-03-24T06:40:08;99202.88;;;12.52;75.84
51313;BME280;37397;53.226;10.400;2023-03-24T06:42:43;99194.31;;;12.52;75.76
51313;BME280;37397;53.226;10.400;2023-03-24T06:45:10;99203.16;;;12.54;75.80
51313;BME280;37397;53.226;10.400;2023-03-24T06:47:37;99207.00;;;12.57;75.71
51313;BME280;37397;53.226;10.400;2023-03-24T06:50:05;99209.88;;;12.57;75.43
51313;BME280;37397;53.226;10.400;2023-03-24T06:52:33;99213.28;;;12.55;75.52
51313;BME280;37397;53.226;10.400;2023-03-24T06:55:00;99204.16;;;12.57;75.47
51313;BME280;37397;53.226;10.400;2023-03-24T06:57:29;99208.81;;;12.60;75.57
51313;BME280;37397;53.226;10.400;2023-03-24T07:00:18;99208.81;;;12.60;75.42
51313;BME280;37397;53.226;10.400;2023-03-24T07:02:58;99206.78;;;12.55;75.21
51313;BME280;37397;53.226;10.400;2023-03-24T07:05:25;99210.38;;;12.61;75.35
51313;BME280;37397;53.226;10.400;2023-03-24T07:07:52;99219.47;;;12.59;75.42
51313;BME280;37397;53.226;10.400;2023-03-24T07:10:44;99224.13;;;12.63;75.57
51313;BME280;37397;53.226;10.400;2023-03-24T07:13:11;99222.56;;;12.62;75.58
51313;BME280;37397;53.226;10.400;2023-03-24T07:15:39;99227.53;;;12.61;75.67
51313;BME280;37397;53.226;10.400;2023-03-24T07:18:07;99229.31;;;12.64;75.65
51313;BME280;37397;53.226;10.400;2023-03-24T07:20:40;99239.44;;;12.65;75.82
51313;BME280;37397;53.226;10.400;2023-03-24T07:23:15;99234.53;;;12.66;75.64
51313;BME280;37397;53.226;10.400;2023-03-24T07:26:05;99233.72;;;12.65;75.54
51313;BME280;37397;53.226;10.400;2023-03-24T07:28:51;99228.78;;;12.66;75.48
51313;BME280;37397;53.226;10.400;2023-03-24T07:31:25;99253.47;;;12.69;75.59
51313;BME280;37397;53.226;10.400;2023-03-24T07:33:58;99245.34;;;12.73;75.74
51313;BME280;37397;53.226;10.400;2023-03-24T07:36:27;99248.47;;;12.75;75.68
51313;BME280;37397;53.226;10.400;2023-03-24T07:38:55;99261.47;;;12.76;75.99
51313;BME280;37397;53.226;10.400;2023-03-24T07:41:28;99265.63;;;12.75;75.80
51313;BME280;37397;53.226;10.400;2023-03-24T07:43:59;99266.66;;;12.77;76.21
51313;BME280;37397;53.226;10.400;2023-03-24T07:46:32;99277.03;;;12.81;76.18
51313;BME280;37397;53.226;10.400;2023-03-24T07:48:58;99285.63;;;12.81;76.39
51313;BME280;37397;53.226;10.400;2023-03-24T07:51:42;99274.19;;;12.81;76.53
51313;BME280;37397;53.226;10.400;2023-03-24T07:54:19;99290.03;;;12.82;76.65
51313;BME280;37397;53.226;10.400;2023-03-24T07:56:47;99297.00;;;12.86;76.84
51313;BME280;37397;53.226;10.400;2023-03-24T07:59:14;99303.00;;;12.88;76.54
51313;BME280;37397;53.226;10.400;2023-03-24T08:02:15;99330.06;;;12.87;76.20
51313;BME280;37397;53.226;10.400;2023-03-24T08:05:20;99342.78;;;12.92;76.36
51313;BME280;37397;53.226;10.400;2023-03-24T08:07:53;99350.06;;;12.93;76.25
51313;BME280;37397;53.226;10.400;2023-03-24T08:10:26;99342.78;;;12.92;76.17
51313;BME280;37397;53.226;10.400;2023-03-24T08:12:53;99357.31;;;12.94;76.17
51313;BME280;37397;53.226;10.400;2023-03-24T08:15:20;99361.97;;;12.97;75.93
51313;BME280;37397;53.226;10.400;2023-03-24T08:17:47;99366.94;;;12.97;75.90
51313;BME280;37397;53.226;10.400;2023-03-24T08:20:15;99372.13;;;12.98;75.74
51313;BME280;37397;53.226;10.400;2023-03-24T08:22:43;99383.81;;;13.00;75.83
51313;BME280;37397;53.226;10.400;2023-03-24T08:25:11;99398.38;;;13.02;75.56
51313;BME280;37397;53.226;10.400;2023-03-24T08:27:39;99422.63;;;13.01;75.48
51313;BME280;37397;53.226;10.400;2023-03-24T08:30:07;99411.38;;;13.03;75.11
51313;BME280;37397;53.226;10.400;2023-03-24T08:32:36;99399.94;;;13.03;74.81
51313;BME280;37397;53.226;10.400;2023-03-24T08:35:02;99412.97;;;13.04;74.48
51313;BME280;37397;53.226;10.400;2023-03-24T08:37:30;99415.56;;;13.02;74.49
51313;BME280;37397;53.226;10.400;2023-03-24T08:39:57;99414.50;;;13.05;74.27
51313;BME280;37397;53.226;10.400;2023-03-24T08:42:24;99420.22;;;13.05;74.40
51313;BME280;37397;53.226;10.400;2023-03-24T08:44:51;99421.78;;;13.06;74.28
51313;BME280;37397;53.226;10.400;2023-03-24T08:47:18;99406.44;;;13.04;74.18
51313;BME280;37397;53.226;10.400;2023-03-24T08:49:44;99423.34;;;13.07;74.48
51313;BME280;37397;53.226;10.400;2023-03-24T08:52:11;99411.09;;;13.07;74.09
51313;BME280;37397;53.226;10.400;2023-03-24T08:54:37;99410.81;;;13.10;73.98
51313;BME280;37397;53.226;10.400;2023-03-24T08:57:04;99406.16;;;13.07;73.91
51313;BME280;37397;53.226;10.400;2023-03-24T08:59:30;99429.53;;;13.11;73.72
51313;BME280;37397;53.226;10.400;2023-03-24T09:01:57;99432.41;;;13.11;73.71
51313;BME280;37397;53.226;10.400;2023-03-24T09:04:23;99438.66;;;13.10;73.46
51313;BME280;37397;53.226;10.400;2023-03-24T09:06:50;99441.78;;;13.12;73.13
51313;BME280;37397;53.226;10.400;2023-03-24T09:09:18;99461.56;;;13.10;72.82
51313;BME280;37397;53.226;10.400;2023-03-24T09:11:45;99454.03;;;13.12;72.56
51313;BME280;37397;53.226;10.400;2023-03-24T09:14:11;99467.81;;;13.14;72.51
51313;BME280;37397;53.226;10.400;2023-03-24T09:16:38;99468.88;;;13.11;72.10
51313;BME280;37397;53.226;10.400;2023-03-24T09:19:05;99455.56;;;13.13;71.78
51313;BME280;37397;53.226;10.400;2023-03-24T09:21:32;99467.00;;;13.13;71.60
51313;BME280;37397;53.226;10.400;2023-03-24T09:24:00;99459.75;;;13.12;71.42
51313;BME280;37397;53.226;10.400;2023-03-24T09:26:27;99461.03;;;13.11;71.42
51313;BME280;37397;53.226;10.400;2023-03-24T09:28:53;99466.78;;;13.11;71.37
51313;BME280;37397;53.226;10.400;2023-03-24T09:31:21;99464.69;;;13.12;71.21
51313;BME280;37397;53.226;10.400;2023-03-24T09:33:47;99468.56;;;13.14;71.27
51313;BME280;37397;53.226;10.400;2023-03-24T09:36:14;99472.75;;;13.13;71.38
51313;BME280;37397;53.226;10.400;2023-03-24T09:38:40;99468.34;;;13.12;71.48
51313;BME280;37397;53.226;10.400;2023-03-24T09:41:16;99472.75;;;13.13;71.22
51313;BME280;37397;53.226;10.400;2023-03-24T09:43:49;99476.09;;;13.18;71.52
51313;BME280;37397;53.226;10.400;2023-03-24T09:46:27;99480.28;;;13.17;71.21
51313;BME280;37397;53.226;10.400;2023-03-24T09:48:55;99485.47;;;13.18;71.36
51313;BME280;37397;53.226;10.400;2023-03-24T09:51:26;99486.25;;;13.19;71.11
51313;BME280;37397;53.226;10.400;2023-03-24T09:54:18;99483.63;;;13.21;71.10
51313;BME280;37397;53.226;10.400;2023-03-24T09:56:48;99469.84;;;13.19;70.84
51313;BME280;37397;53.226;10.400;2023-03-24T09:59:18;99500.53;;;13.24;70.55
51313;BME280;37397;53.226;10.400;2023-03-24T10:01:47;99489.84;;;13.25;70.27
51313;BME280;37397;53.226;10.400;2023-03-24T10:04:19;99465.16;;;13.22;70.34
51313;BME280;37397;53.226;10.400;2023-03-24T10:06:48;99478.13;;;13.28;70.36
51313;BME280;37397;53.226;10.400;2023-03-24T10:09:28;99478.88;;;13.29;70.05
51313;BME280;37397;53.226;10.400;2023-03-24T10:12:26;99481.97;;;13.31;70.00
51313;BME280;37397;53.226;10.400;2023-03-24T10:25:47;99498.38;;;13.36;69.01
51313;BME280;37397;53.226;10.400;2023-03-24T10:28:24;99483.81;;;13.34;67.59
51313;BME280;37397;53.226;10.400;2023-03-24T10:30:55;99487.41;;;13.40;67.94
51313;BME280;37397;53.226;10.400;2023-03-24T10:33:25;99488.13;;;13.46;68.29
51313;BME280;37397;53.226;10.400;2023-03-24T10:36:12;99517.34;;;13.45;68.12
51313;BME280;37397;53.226;10.400;2023-03-24T10:38:40;99501.94;;;13.48;67.97
51313;BME280;37397;53.226;10.400;2023-03-24T10:41:14;99501.13;;;13.47;67.88
51313;BME280;37397;53.226;10.400;2023-03-24T10:43:43;99497.22;;;13.50;67.79
51313;BME280;37397;53.226;10.400;2023-03-24T10:46:16;99508.13;;;13.52;68.00
51313;BME280;37397;53.226;10.400;2023-03-24T10:48:46;99513.88;;;13.52;68.02
51313;BME280;37397;53.226;10.400;2023-03-24T10:51:14;99524.25;;;13.55;68.04
51313;BME280;37397;53.226;10.400;2023-03-24T10:53:43;99519.34;;;13.56;68.15
51313;BME280;37397;53.226;10.400;2023-03-24T10:56:21;99525.06;;;13.56;67.63
51313;BME280;37397;53.226;10.400;2023-03-24T10:59:02;99530.00;;;13.55;67.59
51313;BME280;37397;53.226;10.400;2023-03-24T11:01:29;99548.47;;;13.60;67.60
51313;BME280;37397;53.226;10.400;2023-03-24T11:04:01;99545.13;;;13.56;67.53
51313;BME280;37397;53.226;10.400;2023-03-24T11:06:30;99534.00;;;13.46;67.66
51313;BME280;37397;53.226;10.400;2023-03-24T11:09:18;99559.94;;;13.60;67.70
51313;BME280;37397;53.226;10.400;2023-03-24T11:11:46;99548.47;;;13.60;67.71
51313;BME280;37397;53.226;10.400;2023-03-24T11:14:25;99564.59;;;13.63;67.40
51313;BME280;37397;53.226;10.400;2023-03-24T11:17:02;99561.72;;;13.63;67.26
51313;BME280;37397;53.226;10.400;2023-03-24T11:19:35;99582.56;;;13.63;66.91
51313;BME280;37397;53.226;10.400;2023-03-24T11:22:04;99569.84;;;13.59;67.61
51313;BME280;37397;53.226;10.400;2023-03-24T11:24:36;99568.50;;;13.65;67.33
51313;BME280;37397;53.226;10.400;2023-03-24T11:27:03;99576.56;;;13.67;66.92
51313;BME280;37397;53.226;10.400;2023-03-24T11:29:37;99581.25;;;13.64;67.11
51313;BME280;37397;53.226;10.400;2023-03-24T11:32:12;99581.50;;;13.66;67.23
51313;BME280;37397;53.226;10.400;2023-03-24T11:34:47;99572.97;;;13.61;67.11
51313;BME280;37397;53.226;10.400;2023-03-24T11:37:20;99584.38;;;13.66;66.98
51313;BME280;37397;53.226;10.400;2023-03-24T11:40:15;99573.44;;;13.65;67.05
51313;BME280;37397;53.226;10.400;2023-03-24T11:42:44;99580.22;;;13.62;67.03
51313;BME280;37397;53.226;10.400;2023-03-24T11:45:35;99580.72;;;13.66;66.79
51313;BME280;37397;53.226;10.400;2023-03-24T11:48:26;99579.97;;;13.65;66.77
51313;BME280;37397;53.226;10.400;2023-03-24T11:50:56;99571.59;;;13.67;66.71
51313;BME280;37397;53.226;10.400;2023-03-24T11:53:29;99574.69;;;13.70;66.79
51313;BME280;37397;53.226;10.400;2023-03-24T11:56:25;99569.25;;;13.66;66.97
51313;BME280;37397;53.226;10.400;2023-03-24T12:04:52;99567.13;;;13.72;65.82
51313;BME280;37397;53.226;10.400;2023-03-24T12:10:27;99593.16;;;13.74;66.74
51313;BME280;37397;53.226;10.400;2023-03-24T12:13:11;99590.84;;;13.73;63.50
51313;BME280;37397;53.226;10.400;2023-03-24T12:18:47;99601.72;;;13.80;64.37
51313;BME280;37397;53.226;10.400;2023-03-24T12:24:39;99598.06;;;13.79;64.60
51313;BME280;37397;53.226;10.400;2023-03-24T12:27:27;99597.81;;;13.83;64.68
51313;BME280;37397;53.226;10.400;2023-03-24T12:30:15;99610.28;;;13.85;65.13
51313;BME280;37397;53.226;10.400;2023-03-24T12:33:09;99588.41;;;13.82;65.11
51313;BME280;37397;53.226;10.400;2023-03-24T12:38:45;99593.81;;;13.92;63.99
51313;BME280;37397;53.226;10.400;2023-03-24T12:41:31;99592.50;;;13.93;64.15
51313;BME280;37397;53.226;10.400;2023-03-24T12:46:58;99592.97;;;13.97;63.89
51313;BME280;37397;53.226;10.400;2023-03-24T12:49:48;99581.50;;;13.97;63.94
51313;BME280;37397;53.226;10.400;2023-03-24T12:55:13;99582.22;;;14.03;64.27
51313;BME280;37397;53.226;10.400;2023-03-24T12:57:49;99584.56;;;14.04;64.18
51313;BME280;37397;53.226;10.400;2023-03-24T13:00:24;99592.41;;;14.04;64.04
51313;BME280;37397;53.226;10.400;2023-03-24T13:03:05;99591.06;;;14.05;64.20
51313;BME280;37397;53.226;10.400;2023-03-24T13:05:42;99590.22;;;14.10;64.39
51313;BME280;37397;53.226;10.400;2023-03-24T13:08:15;99593.34;;;14.12;64.29
51313;BME280;37397;53.226;10.400;2023-03-24T13:10:49;99576.13;;;14.12;64.19
51313;BME280;37397;53.226;10.400;2023-03-24T13:13:22;99594.63;;;14.17;64.37
51313;BME280;37397;53.226;10.400;2023-03-24T13:15:56;99579.72;;;14.18;64.32
51313;BME280;37397;53.226;10.400;2023-03-24T13:18:45;99585.22;;;14.16;64.37
51313;BME280;37397;53.226;10.400;2023-03-24T13:21:18;99595.84;;;14.21;64.33
51313;BME280;37397;53.226;10.400;2023-03-24T13:24:10;99584.38;;;14.21;63.93
51313;BME280;37397;53.226;10.400;2023-03-24T13:27:08;99574.47;;;14.22;63.60
51313;BME280;37397;53.226;10.400;2023-03-24T13:32:38;99591.66;;;14.22;64.08
51313;BME280;37397;53.226;10.400;2023-03-24T13:38:20;99602.56;;;14.30;63.65
51313;BME280;37397;53.226;10.400;2023-03-24T13:40:52;99592.16;;;14.27;64.06
51313;BME280;37397;53.226;10.400;2023-03-24T13:43:22;99593.97;;;14.30;63.60
51313;BME280;37397;53.226;10.400;2023-03-24T13:45:57;99591.56;;;14.34;63.11
51313;BME280;37397;53.226;10.400;2023-03-24T13:48:35;99597.28;;;14.34;63.01
51313;BME280;37397;53.226;10.400;2023-03-24T13:51:23;99595.50;;;14.31;62.42
51313;BME280;37397;53.226;10.400;2023-03-24T13:53:57;99598.84;;;14.35;62.56
51313;BME280;37397;53.226;10.400;2023-03-24T13:56:41;99596.53;;;14.33;62.18
51313;BME280;37397;53.226;10.400;2023-03-24T13:59:22;99588.16;;;14.35;62.52
51313;BME280;37397;53.226;10.400;2023-03-24T14:05:07;99584.50;;;14.35;63.08
51313;BME280;37397;53.226;10.400;2023-03-24T14:07:43;99591.09;;;14.30;57.77
51313;BME280;37397;53.226;10.400;2023-03-24T14:15:45;99595.72;;;14.33;60.56
51313;BME280;37397;53.226;10.400;2023-03-24T14:26:05;99600.38;;;14.36;61.55
51313;BME280;37397;53.226;10.400;2023-03-24T14:28:53;99600.94;;;14.34;62.26
51313;BME280;37397;53.226;10.400;2023-03-24T14:31:22;99585.59;;;14.32;62.33
51313;BME280;37397;53.226;10.400;2023-03-24T14:36:31;99593.13;;;14.35;61.90
51313;BME280;37397;53.226;10.400;2023-03-24T14:39:28;99596.84;;;14.30;61.86
51313;BME280;37397;53.226;10.400;2023-03-24T14:41:58;99596.53;;;14.33;61.26
51313;BME280;37397;53.226;10.400;2023-03-24T14:47:13;99601.47;;;14.33;61.99
51313;BME280;37397;53.226;10.400;2023-03-24T14:49:43;99599.94;;;14.32;62.03
51313;BME280;37397;53.226;10.400;2023-03-24T14:52:11;99600.69;;;14.32;61.41
51313;BME280;37397;53.226;10.400;2023-03-24T14:54:43;99598.13;;;14.29;60.92
51313;BME280;37397;53.226;10.400;2023-03-24T14:57:41;99597.91;;;14.27;61.24
51313;BME280;37397;53.226;10.400;2023-03-24T15:00:21;99596.56;;;14.28;62.25
51313;BME280;37397;53.226;10.400;2023-03-24T15:03:17;99589.56;;;14.23;62.35
51313;BME280;37397;53.226;10.400;2023-03-24T15:05:49;99587.97;;;14.28;61.88
51313;BME280;37397;53.226;10.400;2023-03-24T15:08:19;99588.75;;;14.28;62.00
51313;BME280;37397;53.226;10.400;2023-03-24T15:10:49;99592.94;;;14.27;61.88